Time;durP1;ratioP1;P1;durP2;ratioP2;P2;SDS_P1;SDS_P2;PMS_P1;PMS_P2;Temp;Humidity;BMP_temperature;BMP_pressure;BME280_temperature;BME280_humidity;BME280_pressure;Samples;Min_cycle;Max_cycle;Signal;HPM_P1;HPM_P2
2023/01/11 00:00:33;;;;;;;15.38;13.77;;;9.70;99.90;;;;;;5010950;28;20041;-60
2023/01/11 00:03:01;;;;;;;15.55;13.13;;;9.70;99.90;;;;;;4993985;28;20034;-61
2023/01/11 00:05:26;;;;;;;16.02;13.43;;;9.70;99.90;;;;;;5012212;28;20098;-59
2023/01/11 00:07:52;;;;;;;14.73;12.65;;;9.70;99.90;;;;;;5006292;28;20192;-58
2023/01/11 00:10:18;;;;;;;16.02;12.95;;;9.80;99.90;;;;;;5008172;28;20188;-59
2023/01/11 00:12:44;;;;;;;14.10;12.20;;;9.80;99.90;;;;;;5031086;28;20396;-60
2023/01/11 00:15:11;;;;;;;14.50;12.68;;;9.80;99.90;;;;;;5010862;28;20052;-59
2023/01/11 00:17:36;;;;;;;13.48;11.57;;;9.80;99.90;;;;;;5016112;28;20459;-56
2023/01/11 00:20:03;;;;;;;15.82;12.55;;;9.90;99.90;;;;;;5009362;28;20132;-59
2023/01/11 00:22:28;;;;;;;14.52;12.43;;;9.90;99.90;;;;;;5020411;28;20056;-57
2023/01/11 00:24:54;;;;;;;16.05;12.98;;;9.90;99.90;;;;;;5003531;28;20530;-58
2023/01/11 00:27:20;;;;;;;12.73;11.02;;;9.90;99.90;;;;;;4981732;28;20041;-59
2023/01/11 00:29:46;;;;;;;12.32;10.95;;;9.90;99.90;;;;;;5005616;28;20049;-57
2023/01/11 00:32:12;;;;;;;13.40;11.27;;;9.90;99.90;;;;;;5004039;28;20056;-60
2023/01/11 00:34:37;;;;;;;13.38;11.57;;;9.90;99.90;;;;;;5030103;28;20377;-59
2023/01/11 00:37:04;;;;;;;12.25;10.63;;;10.00;99.90;;;;;;4999596;28;20077;-59
2023/01/11 00:39:30;;;;;;;11.40;10.20;;;9.90;99.90;;;;;;5007896;28;20396;-58
2023/01/11 00:50:10;;;;;;;12.38;9.85;;;10.00;99.90;;;;;;5004755;28;20056;-60
2023/01/11 00:52:35;;;;;;;12.27;9.95;;;10.00;99.90;;;;;;5004664;28;20516;-59
2023/01/11 00:55:01;;;;;;;11.30;8.95;;;10.00;99.90;;;;;;5001506;28;20049;-59
2023/01/11 00:57:27;;;;;;;11.63;9.23;;;10.00;99.90;;;;;;4992742;28;20042;-58
2023/01/11 00:59:52;;;;;;;10.38;9.25;;;10.10;99.90;;;;;;4997079;28;20045;-59
2023/01/11 01:02:18;;;;;;;12.77;8.48;;;10.10;99.90;;;;;;5001035;28;20041;-59
2023/01/11 01:04:44;;;;;;;9.13;8.02;;;10.10;99.90;;;;;;5005226;28;20095;-58
2023/01/11 01:07:10;;;;;;;10.10;8.23;;;10.10;99.90;;;;;;5002629;28;20076;-59
2023/01/11 01:09:36;;;;;;;10.35;8.23;;;10.10;99.90;;;;;;4990271;28;20041;-57
2023/01/11 01:12:03;;;;;;;9.80;7.65;;;10.10;99.90;;;;;;5026823;28;20434;-58
2023/01/11 01:14:29;;;;;;;9.18;7.70;;;10.20;99.90;;;;;;4992099;28;20043;-59
2023/01/11 01:17:06;;;;;;;10.77;7.60;;;9.90;99.90;;;;;;4997782;28;20111;-59
2023/01/11 01:19:34;;;;;;;7.60;6.68;;;10.20;99.90;;;;;;4985877;28;20120;-57
2023/01/11 01:22:00;;;;;;;8.05;7.20;;;10.20;99.90;;;;;;5004045;28;20144;-60
2023/01/11 01:24:29;;;;;;;8.45;7.30;;;10.30;99.90;;;;;;5008621;28;20571;-59
2023/01/11 01:26:56;;;;;;;9.48;6.68;;;10.30;99.90;;;;;;4992349;28;20288;-60
2023/01/11 01:29:23;;;;;;;9.85;6.65;;;10.30;99.90;;;;;;5002162;28;20045;-60
2023/01/11 01:31:48;;;;;;;7.43;6.50;;;10.30;99.90;;;;;;5017489;28;20546;-61
2023/01/11 01:34:14;;;;;;;9.20;6.93;;;10.40;99.90;;;;;;5006820;28;20041;-58
2023/01/11 01:36:41;;;;;;;8.02;6.75;;;10.40;99.90;;;;;;5000117;28;20037;-59
2023/01/11 01:39:09;;;;;;;7.05;6.18;;;10.40;99.90;;;;;;5018135;28;20069;-59
2023/01/11 01:41:35;;;;;;;8.57;6.88;;;10.40;99.90;;;;;;5006812;28;20041;-60
2023/01/11 01:44:04;;;;;;;7.97;6.70;;;10.40;99.90;;;;;;5004760;28;20117;-60
2023/01/11 01:46:31;;;;;;;9.48;7.15;;;10.50;99.90;;;;;;5007330;28;20532;-59
2023/01/11 01:49:08;;;;;;;7.72;6.63;;;10.50;99.90;;;;;;5002580;28;20053;-59
2023/01/11 01:51:48;;;;;;;7.25;6.05;;;10.60;99.90;;;;;;5003371;28;20053;-58
2023/01/11 01:54:18;;;;;;;8.55;7.00;;;10.60;99.90;;;;;;4987946;28;20045;-58
2023/01/11 01:56:52;;;;;;;9.10;6.65;;;10.60;99.90;;;;;;5003079;28;20049;-60
2023/01/11 01:59:19;;;;;;;8.57;6.60;;;10.60;99.90;;;;;;5002394;28;20053;-61
2023/01/11 02:01:46;;;;;;;7.88;6.15;;;10.60;99.90;;;;;;4999420;28;20463;-60
2023/01/11 02:04:25;;;;;;;7.85;6.40;;;10.70;99.90;;;;;;5022528;28;20043;-60
2023/01/11 02:07:08;;;;;;;6.20;5.57;;;10.70;99.90;;;;;;5004689;28;20515;-59
2023/01/11 02:09:37;;;;;;;7.43;6.28;;;10.70;99.90;;;;;;4990816;28;20527;-57
2023/01/11 02:12:04;;;;;;;5.65;4.85;;;10.70;99.90;;;;;;5016269;28;20052;-60
2023/01/11 02:14:31;;;;;;;7.93;5.72;;;10.70;99.90;;;;;;4999651;28;20049;-60
2023/01/11 02:16:58;;;;;;;7.05;5.25;;;10.70;99.90;;;;;;5002376;28;20041;-61
2023/01/11 02:20:14;;;;;;;6.35;4.70;;;10.70;99.90;;;;;;4998734;28;20602;-60
2023/01/11 02:22:48;;;;;;;7.72;5.50;;;10.80;99.90;;;;;;4903302;29;20047;-59
2023/01/11 02:25:51;;;;;;;7.35;5.43;;;10.70;99.90;;;;;;4899086;29;20508;-58
2023/01/11 02:28:29;;;;;;;8.68;6.47;;;10.70;99.90;;;;;;4996281;28;20396;-58
2023/01/11 02:31:18;;;;;;;8.68;6.50;;;10.70;99.90;;;;;;5002278;28;20064;-58
2023/01/11 02:33:53;;;;;;;7.63;6.68;;;10.70;99.90;;;;;;4964591;28;20459;-59
2023/01/11 02:36:44;;;;;;;11.88;7.90;;;10.70;99.90;;;;;;5002680;28;20310;-58
2023/01/11 02:39:25;;;;;;;8.82;7.05;;;10.70;99.90;;;;;;4982329;28;20141;-58
2023/01/11 02:45:15;;;;;;;11.45;7.72;;;10.70;99.90;;;;;;5005178;28;20033;-60
2023/01/11 02:47:55;;;;;;;;;;;10.70;99.90;;;;;;5000171;28;20037;-59
2023/01/11 02:50:52;;;;;;;10.70;7.55;;;10.70;99.90;;;;;;5000780;28;19917;-58
2023/01/11 02:53:26;;;;;;;10.88;6.60;;;10.70;99.90;;;;;;4999096;28;21154;-58
2023/01/11 02:55:57;;;;;;;10.02;6.70;;;10.70;99.90;;;;;;5009910;28;20496;-59
2023/01/11 02:58:26;;;;;;;12.52;7.10;;;10.70;99.90;;;;;;4997178;28;20137;-59
2023/01/11 03:00:54;;;;;;;12.18;7.68;;;10.70;99.90;;;;;;4997137;28;20049;-59
2023/01/11 03:03:29;;;;;;;11.00;7.53;;;10.70;99.90;;;;;;5002134;28;20547;-59
2023/01/11 03:06:05;;;;;;;11.60;7.10;;;10.70;99.90;;;;;;5007645;28;20033;-59
2023/01/11 03:08:39;;;;;;;14.32;7.30;;;10.70;99.90;;;;;;5007399;28;20068;-60
2023/01/11 03:14:31;;;;;;;14.30;6.60;;;10.70;99.90;;;;;;4966729;28;20049;-59
2023/01/11 03:17:26;;;;;;;16.83;7.50;;;10.80;99.90;;;;;;5003673;28;20041;-60
2023/01/11 03:20:00;;;;;;;;;;;10.80;99.90;;;;;;5007726;28;20041;-59
2023/01/11 03:22:44;;;;;;;20.40;6.20;;;10.80;99.90;;;;;;5007082;28;19917;-60
2023/01/11 03:25:29;;;;;;;17.08;5.55;;;10.80;99.90;;;;;;5011870;28;20049;-58
2023/01/11 03:28:24;;;;;;;16.60;5.60;;;10.80;99.90;;;;;;5010744;28;20098;-58
2023/01/11 03:30:58;;;;;;;20.15;5.55;;;10.80;99.90;;;;;;5009150;28;20273;-58
2023/01/11 03:33:46;;;;;;;23.25;5.72;;;10.90;99.90;;;;;;5000731;28;20465;-60
2023/01/11 03:36:32;;;;;;;19.05;4.18;;;10.90;99.90;;;;;;5007063;28;20049;-60
2023/01/11 03:39:32;;;;;;;21.90;4.63;;;10.90;99.90;;;;;;5004291;28;20045;-59
2023/01/11 03:42:02;;;;;;;25.60;5.30;;;10.90;99.90;;;;;;5009504;28;20077;-57
2023/01/11 03:44:32;;;;;;;22.65;4.35;;;10.90;99.90;;;;;;5009893;28;20041;-58
2023/01/11 03:47:04;;;;;;;29.67;4.72;;;10.90;99.90;;;;;;5023358;28;20045;-58
2023/01/11 03:49:52;;;;;;;25.45;5.25;;;10.90;99.90;;;;;;5015453;28;20045;-59
2023/01/11 03:52:21;;;;;;;28.10;5.45;;;10.90;99.90;;;;;;5006926;28;20056;-61
2023/01/11 03:54:47;;;;;;;28.77;5.00;;;10.90;99.90;;;;;;5006390;28;20045;-57
2023/01/11 03:57:20;;;;;;;28.90;5.20;;;10.90;99.90;;;;;;5008465;28;20037;-60
2023/01/11 03:59:48;;;;;;;26.60;4.78;;;11.00;99.90;;;;;;5007574;28;20234;-60
2023/01/11 04:02:19;;;;;;;27.08;5.65;;;11.00;99.90;;;;;;5001655;28;20066;-60
2023/01/11 04:04:45;;;;;;;26.88;5.40;;;10.90;99.90;;;;;;5020511;28;20041;-57
2023/01/11 04:07:11;;;;;;;22.77;5.13;;;10.90;99.90;;;;;;5004760;28;20393;-58
2023/01/11 04:09:37;;;;;;;24.17;4.40;;;10.90;99.90;;;;;;5008667;28;20069;-58
2023/01/11 04:12:03;;;;;;;24.35;4.70;;;10.80;99.90;;;;;;5007895;28;20528;-60
2023/01/11 04:14:28;;;;;;;30.13;5.18;;;10.90;99.90;;;;;;5009882;28;20049;-60
2023/01/11 04:16:54;;;;;;;27.40;5.07;;;10.80;99.90;;;;;;5006485;28;20267;-59
2023/01/11 04:19:20;;;;;;;24.67;4.90;;;10.80;99.90;;;;;;5003760;28;20037;-60
2023/01/11 04:21:45;;;;;;;26.17;5.00;;;10.80;99.90;;;;;;4989241;28;20080;-60
2023/01/11 04:24:12;;;;;;;24.58;4.65;;;10.80;99.90;;;;;;5024928;28;20065;-61
2023/01/11 04:26:38;;;;;;;25.73;5.20;;;10.80;99.90;;;;;;5006036;28;20035;-58
2023/01/11 04:29:05;;;;;;;23.75;5.35;;;10.80;99.90;;;;;;4983444;28;20464;-58
2023/01/11 04:31:31;;;;;;;21.85;4.75;;;10.80;99.90;;;;;;5005015;28;20519;-59
2023/01/11 04:33:57;;;;;;;24.73;4.30;;;10.80;99.90;;;;;;5020777;28;20129;-59
2023/01/11 04:36:23;;;;;;;19.75;3.72;;;10.80;99.90;;;;;;5007490;28;20128;-60
2023/01/11 04:38:48;;;;;;;20.55;3.72;;;10.70;99.90;;;;;;5001276;28;20125;-60
2023/01/11 04:43:58;;;;;;;;;;;10.60;99.90;;;;;;5006907;28;20037;-60
2023/01/11 04:46:24;;;;;;;17.70;3.85;;;10.60;99.90;;;;;;5005569;28;19923;-60
2023/01/11 04:48:51;;;;;;;16.67;3.65;;;10.60;99.90;;;;;;5006194;28;20061;-59
2023/01/11 04:51:17;;;;;;;17.30;3.35;;;10.60;99.90;;;;;;5005408;28;20033;-58
2023/01/11 04:53:47;;;;;;;24.58;4.00;;;10.60;99.90;;;;;;4990693;28;20566;-59
2023/01/11 04:56:13;;;;;;;36.03;4.97;;;10.60;99.90;;;;;;5011571;28;20451;-60
2023/01/11 04:58:39;;;;;;;24.92;4.55;;;10.60;99.90;;;;;;4999869;28;20099;-59
2023/01/11 05:01:10;;;;;;;31.10;4.63;;;10.60;99.90;;;;;;5009705;28;20041;-58
2023/01/11 05:03:36;;;;;;;34.05;5.40;;;10.60;99.90;;;;;;5006812;28;20033;-60
2023/01/11 05:06:02;;;;;;;29.48;5.90;;;10.60;99.90;;;;;;5025082;28;20388;-60
2023/01/11 05:08:29;;;;;;;42.83;7.47;;;10.50;99.90;;;;;;5000760;28;20481;-58
2023/01/11 05:10:57;;;;;;;39.38;6.13;;;10.60;99.90;;;;;;4995177;28;20109;-58
2023/01/11 05:13:40;;;;;;;46.80;6.75;;;10.60;99.90;;;;;;4991259;28;20091;-58
2023/01/11 05:16:18;;;;;;;33.70;5.40;;;10.50;99.90;;;;;;4992618;28;20124;-60
2023/01/11 05:18:55;;;;;;;34.53;6.38;;;10.50;99.90;;;;;;5009215;28;20039;-60
2023/01/11 05:21:24;;;;;;;38.90;6.05;;;10.50;99.90;;;;;;5007008;28;20120;-56
2023/01/11 05:23:50;;;;;;;33.78;5.15;;;10.50;99.90;;;;;;5010592;28;20037;-59
2023/01/11 05:26:22;;;;;;;26.05;4.25;;;10.40;99.90;;;;;;4989811;28;20042;-60
2023/01/11 05:28:49;;;;;;;23.42;4.13;;;10.40;99.90;;;;;;5018802;28;20042;-60
2023/01/11 05:31:15;;;;;;;26.70;4.40;;;10.30;99.90;;;;;;5002807;28;20066;-60
2023/01/11 05:33:41;;;;;;;24.75;4.45;;;10.30;99.90;;;;;;5003886;28;20089;-59
2023/01/11 05:36:13;;;;;;;21.90;3.53;;;10.20;99.90;;;;;;5003463;28;20571;-61
2023/01/11 05:38:39;;;;;;;28.48;4.68;;;10.20;99.90;;;;;;4986627;28;20041;-59
2023/01/11 05:41:09;;;;;;;26.85;4.55;;;10.20;99.90;;;;;;5002115;28;20044;-60
2023/01/11 05:45:27;;;;;;;26.92;4.40;;;10.10;99.90;;;;;;5002588;28;20038;-60
2023/01/11 05:48:57;;;;;;;25.75;3.85;;;10.10;99.90;;;;;;5019747;28;20045;-61
2023/01/11 05:51:29;;;;;;;24.20;5.15;;;10.10;99.90;;;;;;4998196;28;20056;-60
2023/01/11 05:53:59;;;;;;;28.95;4.85;;;10.00;99.90;;;;;;5002677;28;20029;-60
2023/01/11 05:56:25;;;;;;;30.45;5.93;;;10.10;99.90;;;;;;5001266;28;20047;-60
2023/01/11 05:58:51;;;;;;;29.33;4.18;;;10.00;99.90;;;;;;4999759;28;20392;-61
2023/01/11 06:01:18;;;;;;;30.40;5.15;;;10.00;99.90;;;;;;5001848;28;20302;-59
2023/01/11 06:03:45;;;;;;;27.08;4.78;;;10.00;99.90;;;;;;5000001;28;20281;-61
2023/01/11 06:06:11;;;;;;;24.23;4.63;;;10.00;99.90;;;;;;5002803;28;20068;-59
2023/01/11 06:08:37;;;;;;;25.33;3.95;;;10.00;99.90;;;;;;5002600;28;20045;-61
2023/01/11 06:11:02;;;;;;;27.38;4.90;;;10.00;99.90;;;;;;5017723;28;20484;-60
2023/01/11 06:13:28;;;;;;;29.35;5.47;;;10.00;99.90;;;;;;4984496;28;20508;-59
2023/01/11 06:16:03;;;;;;;25.92;5.10;;;10.00;99.90;;;;;;5002410;28;20063;-59
2023/01/11 06:18:34;;;;;;;26.98;3.90;;;10.00;99.90;;;;;;4998361;28;20068;-59
2023/01/11 06:21:00;;;;;;;28.95;6.03;;;9.90;99.90;;;;;;5004402;28;20401;-60
2023/01/11 06:23:27;;;;;;;31.25;3.83;;;9.90;99.90;;;;;;5013517;28;20522;-59
2023/01/11 06:25:53;;;;;;;29.08;4.70;;;9.90;99.90;;;;;;5005250;28;20044;-61
2023/01/11 06:28:19;;;;;;;15.98;2.88;;;9.90;99.90;;;;;;5003582;28;20151;-61
2023/01/11 06:30:53;;;;;;;14.80;2.83;;;9.90;99.90;;;;;;4975210;28;20120;-60
2023/01/11 06:33:19;;;;;;;8.15;2.45;;;9.90;99.90;;;;;;4999848;28;20049;-60
2023/01/11 06:35:44;;;;;;;19.88;3.17;;;9.90;99.90;;;;;;4997532;28;20120;-62
2023/01/11 06:38:12;;;;;;;15.32;2.85;;;9.90;99.90;;;;;;4997187;28;20326;-61
2023/01/11 06:40:39;;;;;;;17.83;4.53;;;9.90;99.90;;;;;;4970748;28;20037;-60
2023/01/11 06:43:05;;;;;;;19.65;3.92;;;9.90;99.90;;;;;;5002802;28;20040;-60
2023/01/11 06:45:31;;;;;;;22.77;3.17;;;9.90;99.90;;;;;;5002793;28;20136;-61
2023/01/11 06:47:58;;;;;;;20.75;3.17;;;9.90;99.90;;;;;;4986114;28;20928;-59
2023/01/11 06:50:24;;;;;;;19.45;3.45;;;9.90;99.90;;;;;;5008284;28;20085;-60
2023/01/11 06:52:54;;;;;;;17.83;3.00;;;9.80;99.90;;;;;;5008857;28;20033;-60
2023/01/11 06:55:21;;;;;;;14.85;2.72;;;9.80;99.90;;;;;;4978888;28;20499;-61
2023/01/11 06:57:47;;;;;;;16.95;2.70;;;9.80;99.90;;;;;;5018275;28;20500;-60
2023/01/11 07:00:13;;;;;;;18.35;3.47;;;9.80;99.90;;;;;;5001444;28;20037;-61
2023/01/11 07:02:39;;;;;;;21.45;4.00;;;9.70;99.90;;;;;;4983092;28;20056;-61
2023/01/11 07:05:05;;;;;;;18.77;2.90;;;9.70;99.90;;;;;;5003423;28;20034;-60
2023/01/11 07:07:30;;;;;;;18.15;3.60;;;9.70;99.90;;;;;;5030915;28;20087;-61
2023/01/11 07:09:56;;;;;;;18.02;2.65;;;9.60;99.90;;;;;;5015534;28;20049;-60
2023/01/11 07:12:22;;;;;;;23.83;3.97;;;9.60;99.90;;;;;;4987613;28;20159;-60
2023/01/11 07:14:47;;;;;;;20.05;3.45;;;9.60;99.90;;;;;;4986313;28;20084;-61
2023/01/11 07:17:13;;;;;;;18.60;4.05;;;9.60;99.90;;;;;;5013646;28;20067;-60
2023/01/11 07:19:39;;;;;;;17.17;3.63;;;9.50;99.90;;;;;;4986925;28;20081;-60
2023/01/11 07:22:04;;;;;;;14.25;3.60;;;9.50;99.90;;;;;;5016678;28;20025;-61
2023/01/11 07:24:30;;;;;;;15.45;2.53;;;9.50;99.90;;;;;;5003965;28;20041;-61
2023/01/11 07:26:58;;;;;;;15.75;3.10;;;9.50;99.90;;;;;;5008343;28;20038;-59
2023/01/11 07:29:24;;;;;;;19.90;3.53;;;9.50;99.90;;;;;;4999343;28;20053;-61
2023/01/11 07:31:50;;;;;;;15.55;3.13;;;9.50;99.90;;;;;;4990896;28;20063;-61
2023/01/11 07:34:15;;;;;;;11.70;2.10;;;9.50;99.90;;;;;;5009659;28;20246;-60
2023/01/11 07:36:41;;;;;;;17.73;3.22;;;9.50;99.90;;;;;;5009846;28;20124;-61
2023/01/11 07:39:07;;;;;;;19.45;2.70;;;9.50;99.90;;;;;;4982455;28;20413;-61
2023/01/11 07:44:17;;;;;;;15.02;2.65;;;9.40;99.90;;;;;;4999562;28;20825;-59
2023/01/11 07:46:43;;;;;;;19.75;2.75;;;9.40;99.90;;;;;;5005031;28;20734;-61
2023/01/11 07:49:09;;;;;;;14.65;2.97;;;9.30;99.90;;;;;;4988483;28;20120;-61
2023/01/11 07:51:35;;;;;;;13.00;2.45;;;9.30;99.90;;;;;;5005223;28;20055;-59
2023/01/11 07:54:02;;;;;;;11.05;2.63;;;9.30;99.90;;;;;;4988028;28;20475;-60
2023/01/11 07:56:29;;;;;;;16.52;2.83;;;9.30;99.90;;;;;;5002999;28;20569;-60
2023/01/11 07:58:55;;;;;;;16.75;2.38;;;9.20;99.90;;;;;;4994167;28;20073;-60
2023/01/11 08:01:21;;;;;;;20.55;3.10;;;9.20;99.90;;;;;;5024085;28;20037;-59
2023/01/11 08:03:47;;;;;;;13.30;3.03;;;9.20;99.90;;;;;;5010947;28;20075;-59
2023/01/11 08:06:15;;;;;;;15.35;3.90;;;9.20;99.90;;;;;;5000956;28;20489;-60
2023/01/11 08:08:41;;;;;;;21.08;2.72;;;9.20;99.90;;;;;;5021138;28;20048;-59
2023/01/11 08:16:35;;;;;;;13.45;2.58;;;9.10;99.90;;;;;;5004337;28;20040;-60
2023/01/11 08:19:02;;;;;;;17.17;3.47;;;9.10;99.90;;;;;;5013357;28;20037;-60
2023/01/11 08:21:27;;;;;;;18.50;2.67;;;9.10;99.90;;;;;;5018182;28;20049;-57
2023/01/11 08:23:55;;;;;;;18.92;3.50;;;9.10;99.90;;;;;;5009660;28;20510;-58
2023/01/11 08:26:25;;;;;;;15.77;2.17;;;9.00;99.90;;;;;;5024683;28;20037;-59
2023/01/11 08:28:52;;;;;;;12.15;2.78;;;9.00;99.90;;;;;;5018560;28;20049;-58
2023/01/11 08:31:18;;;;;;;14.80;2.72;;;8.90;99.90;;;;;;5003771;28;20041;-58
2023/01/11 08:33:43;;;;;;;13.73;2.63;;;8.90;99.90;;;;;;5006336;28;20049;-58
2023/01/11 08:36:11;;;;;;;23.52;3.08;;;8.90;99.90;;;;;;5001201;28;20058;-57
2023/01/11 08:38:36;;;;;;;9.65;2.25;;;8.90;99.90;;;;;;5006021;28;20469;-57
2023/01/11 08:41:10;;;;;;;9.18;2.08;;;8.90;99.90;;;;;;5006558;28;20084;-57
2023/01/11 08:43:40;;;;;;;18.13;2.78;;;8.90;99.90;;;;;;5006463;28;20049;-58
2023/01/11 08:46:07;;;;;;;10.02;2.50;;;8.90;99.90;;;;;;5003987;28;20037;-59
2023/01/11 08:48:33;;;;;;;15.52;2.80;;;8.80;99.90;;;;;;5002869;28;20120;-59
2023/01/11 08:50:58;;;;;;;15.73;3.15;;;8.80;99.90;;;;;;5003668;28;20124;-59
2023/01/11 08:53:24;;;;;;;13.35;2.60;;;8.80;99.90;;;;;;5002321;28;20052;-58
2023/01/11 08:55:51;;;;;;;14.32;2.67;;;8.80;99.90;;;;;;4985827;28;20472;-58
2023/01/11 08:58:18;;;;;;;16.08;3.40;;;8.80;99.90;;;;;;5002192;28;20096;-58
2023/01/11 09:00:44;;;;;;;14.32;2.55;;;8.90;99.90;;;;;;5005033;28;20041;-57
2023/01/11 09:03:11;;;;;;;11.68;2.67;;;8.90;99.90;;;;;;4998312;28;20053;-58
2023/01/11 09:05:40;;;;;;;14.52;3.47;;;8.90;99.90;;;;;;4990119;28;20033;-59
2023/01/11 09:08:07;;;;;;;12.63;3.65;;;8.90;99.90;;;;;;4992013;28;20354;-56
2023/01/11 09:10:33;;;;;;;14.48;2.90;;;8.90;99.90;;;;;;4978681;28;20034;-58
2023/01/11 09:13:00;;;;;;;14.90;4.15;;;8.90;99.90;;;;;;4993842;28;20245;-58
2023/01/11 09:15:26;;;;;;;16.70;2.55;;;8.90;99.90;;;;;;5019233;28;20041;-58
2023/01/11 09:17:52;;;;;;;11.90;2.30;;;8.90;99.90;;;;;;5000671;28;20044;-60
2023/01/11 09:20:19;;;;;;;14.98;3.65;;;8.90;99.90;;;;;;5003327;28;20053;-60
2023/01/11 09:22:50;;;;;;;15.52;2.58;;;8.90;99.90;;;;;;4997810;28;20120;-58
2023/01/11 09:25:17;;;;;;;9.85;2.78;;;9.00;99.90;;;;;;4995583;28;20362;-59
2023/01/11 09:27:47;;;;;;;11.93;2.80;;;9.10;99.90;;;;;;5012634;28;20072;-59
2023/01/11 09:30:16;;;;;;;9.77;2.08;;;9.10;99.90;;;;;;5005387;28;20057;-59
2023/01/11 09:32:42;;;;;;;17.25;4.07;;;9.10;99.90;;;;;;4997482;28;20095;-59
2023/01/11 09:35:08;;;;;;;16.83;2.33;;;9.10;99.90;;;;;;4985160;28;20056;-60
2023/01/11 09:37:38;;;;;;;14.35;2.40;;;9.20;99.90;;;;;;4988323;28;20041;-61
2023/01/11 09:40:06;;;;;;;11.88;2.40;;;9.20;99.90;;;;;;4999439;28;20061;-60
2023/01/11 09:42:36;;;;;;;15.25;2.28;;;9.20;99.90;;;;;;4995703;28;20072;-62
2023/01/11 09:45:20;;;;;;;13.43;2.85;;;9.30;99.90;;;;;;4976637;28;20054;-60
2023/01/11 09:48:03;;;;;;;18.98;3.53;;;9.30;99.90;;;;;;4962698;28;1118818;-60
2023/01/11 09:50:32;;;;;;;17.02;3.88;;;9.30;99.90;;;;;;5003343;28;20077;-59
2023/01/11 09:53:07;;;;;;;18.98;4.72;;;9.40;99.90;;;;;;4983408;28;20432;-60
2023/01/11 09:55:41;;;;;;;14.10;2.80;;;9.50;99.90;;;;;;5020238;28;20041;-59
2023/01/11 09:58:22;;;;;;;25.08;4.40;;;9.50;99.90;;;;;;5008453;28;20099;-60
2023/01/11 10:01:03;;;;;;;15.10;2.90;;;9.60;99.90;;;;;;4993129;28;20064;-60
2023/01/11 10:04:04;;;;;;;16.05;3.15;;;9.60;99.90;;;;;;5013789;28;20500;-59
2023/01/11 10:07:18;;;;;;;11.93;2.65;;;9.70;99.90;;;;;;5000959;28;20091;-60
2023/01/11 10:09:50;;;;;;;14.35;2.40;;;9.70;99.90;;;;;;5012167;28;20057;-60
2023/01/11 10:13:03;;;;;;;24.85;4.90;;;9.70;99.90;;;;;;5000721;28;20132;-60
2023/01/11 10:15:49;;;;;;;13.20;4.40;;;9.70;99.90;;;;;;4963067;28;20075;-59
2023/01/11 10:18:37;;;;;;;16.85;3.42;;;9.80;99.90;;;;;;5015811;28;20053;-60
2023/01/11 10:21:16;;;;;;;15.35;4.20;;;9.80;99.90;;;;;;5004272;28;20044;-59
2023/01/11 10:23:52;;;;;;;13.68;3.67;;;9.80;99.90;;;;;;5018237;28;20388;-59
2023/01/11 10:26:27;;;;;;;16.73;4.78;;;9.90;99.90;;;;;;5007111;28;20091;-59
2023/01/11 10:34:53;;;;;;;19.33;4.38;;;10.00;99.90;;;;;;5007198;28;20041;-60
2023/01/11 10:37:53;;;;;;;14.32;2.50;;;10.10;99.90;;;;;;5016382;28;20045;-58
2023/01/11 10:40:37;;;;;;;15.40;3.13;;;10.10;99.90;;;;;;5017076;28;20049;-59
2023/01/11 10:43:21;;;;;;;19.02;3.17;;;10.10;99.90;;;;;;5017423;28;20326;-58
2023/01/11 10:45:50;;;;;;;21.13;3.92;;;10.20;99.90;;;;;;5012725;28;20269;-59
2023/01/11 10:48:32;;;;;;;13.40;3.13;;;10.20;99.90;;;;;;5005998;28;20115;-60
2023/01/11 10:50:57;;;;;;;17.42;3.08;;;10.20;99.90;;;;;;5004073;28;20073;-58
2023/01/11 10:53:35;;;;;;;11.57;2.50;;;10.20;99.90;;;;;;4995208;28;20516;-59
2023/01/11 10:56:32;;;;;;;13.48;2.70;;;10.30;99.90;;;;;;4978042;28;20050;-58
2023/01/11 10:59:06;;;;;;;20.75;4.28;;;10.30;99.90;;;;;;4995760;28;20042;-60
2023/01/11 11:01:44;;;;;;;;;;;10.30;99.90;;;;;;5003024;28;20046;-60
2023/01/11 11:04:22;;;;;;;18.88;4.00;;;10.30;99.90;;;;;;4982292;28;20179;-59
2023/01/11 11:07:11;;;;;;;18.55;4.18;;;10.30;99.90;;;;;;4992312;23;20053;-59
2023/01/11 11:09:52;;;;;;;21.48;4.28;;;10.30;99.90;;;;;;4986060;28;20049;-60
2023/01/11 11:12:24;;;;;;;23.35;3.95;;;10.30;99.90;;;;;;4987172;28;20054;-60
2023/01/11 11:15:22;;;;;;;20.40;3.88;;;10.30;99.90;;;;;;4992637;28;20488;-60
2023/01/11 11:17:52;;;;;;;25.65;3.78;;;10.30;99.90;;;;;;4977768;28;20381;-60
2023/01/11 11:20:30;;;;;;;16.45;3.67;;;10.40;99.90;;;;;;5017694;28;20046;-60
2023/01/11 11:22:56;;;;;;;18.27;3.88;;;10.50;99.90;;;;;;5008972;28;20042;-60
2023/01/11 11:25:37;;;;;;;22.40;3.70;;;10.40;99.90;;;;;;4984560;28;20041;-60
2023/01/11 11:28:02;;;;;;;21.70;4.40;;;10.50;99.90;;;;;;4999275;28;20045;-59
2023/01/11 11:30:33;;;;;;;17.55;3.00;;;10.40;99.90;;;;;;4996505;28;20404;-60
2023/01/11 11:33:04;;;;;;;22.92;3.95;;;10.50;99.90;;;;;;5010386;28;20049;-60
2023/01/11 11:35:37;;;;;;;13.75;3.13;;;10.50;99.90;;;;;;5014524;28;20128;-59
2023/01/11 11:38:03;;;;;;;21.48;4.32;;;10.50;99.90;;;;;;5007639;28;20046;-60
2023/01/11 11:40:37;;;;;;;21.50;3.95;;;10.50;99.90;;;;;;5013104;28;20041;-60
2023/01/11 11:43:10;;;;;;;19.88;3.60;;;10.60;99.90;;;;;;4992914;28;20045;-60
2023/01/11 11:45:36;;;;;;;18.83;3.58;;;10.60;99.90;;;;;;4987501;28;20056;-59
2023/01/11 11:48:04;;;;;;;15.68;3.15;;;10.60;99.90;;;;;;5019928;28;20104;-60
2023/01/11 11:50:31;;;;;;;20.98;4.63;;;10.70;99.90;;;;;;4979040;28;20041;-60
2023/01/11 11:53:03;;;;;;;17.65;3.80;;;10.70;99.90;;;;;;4978768;28;20505;-60
2023/01/11 11:55:32;;;;;;;14.25;3.30;;;10.70;99.90;;;;;;5013752;28;20737;-59
2023/01/11 11:58:07;;;;;;;17.05;3.50;;;10.80;99.90;;;;;;4995899;28;20712;-60
2023/01/11 12:00:44;;;;;;;23.90;4.47;;;10.80;99.90;;;;;;4998785;28;20051;-59
2023/01/11 12:03:41;;;;;;;24.60;4.65;;;10.80;99.90;;;;;;4998892;28;20033;-60
2023/01/11 12:06:07;;;;;;;18.10;4.47;;;10.80;99.90;;;;;;5015079;28;20496;-60
2023/01/11 12:08:35;;;;;;;18.08;3.88;;;10.80;99.90;;;;;;5018607;28;20030;-60
2023/01/11 12:11:04;;;;;;;15.20;3.70;;;10.70;99.90;;;;;;4998537;28;20584;-60
2023/01/11 12:13:38;;;;;;;22.88;4.88;;;10.60;99.90;;;;;;5006342;22;20125;-57
2023/01/11 12:16:24;;;;;;;;;;;10.60;99.90;;;;;;4982508;28;20534;-56
2023/01/11 12:18:50;;;;;;;24.75;5.43;;;10.40;99.90;;;;;;5002018;28;19917;-56
2023/01/11 12:21:25;;;;;;;21.25;4.53;;;10.40;99.90;;;;;;5001362;28;20048;-54
2023/01/11 12:24:11;;;;;;;22.13;4.82;;;10.30;99.90;;;;;;5002785;28;20091;-57
2023/01/11 12:27:01;;;;;;;24.55;4.88;;;10.30;99.90;;;;;;4999201;28;20138;-57
2023/01/11 12:29:38;;;;;;;22.52;5.00;;;10.30;99.90;;;;;;4999410;28;20332;-57
2023/01/11 12:32:15;;;;;;;16.45;4.90;;;10.30;99.90;;;;;;5008504;28;20049;-56
2023/01/11 12:34:53;;;;;;;23.67;4.63;;;10.40;99.90;;;;;;5023112;28;20041;-55
2023/01/11 12:37:45;;;;;;;20.27;4.55;;;10.40;99.90;;;;;;5001703;28;20044;-55
2023/01/11 12:40:48;;;;;;;18.95;4.03;;;10.40;99.90;;;;;;5010209;28;20049;-57
2023/01/11 12:43:43;;;;;;;30.23;5.05;;;10.40;99.90;;;;;;5006784;28;20447;-56
2023/01/11 12:46:44;;;;;;;22.75;4.82;;;10.40;99.90;;;;;;4995607;28;20049;-57
2023/01/11 12:49:34;;;;;;;18.13;4.15;;;10.30;99.90;;;;;;5023270;28;20869;-55
2023/01/11 12:52:24;;;;;;;29.02;5.93;;;10.30;99.90;;;;;;5025199;28;21915;-56
2023/01/11 12:55:27;;;;;;;30.88;6.38;;;10.20;99.90;;;;;;5003653;28;20075;-54
2023/01/11 12:58:18;;;;;;;26.98;4.88;;;10.20;99.90;;;;;;5017776;28;20029;-55
2023/01/11 13:01:02;;;;;;;20.48;4.10;;;10.20;99.90;;;;;;4997206;28;20505;-55
2023/01/11 13:03:40;;;;;;;24.40;4.32;;;10.10;99.90;;;;;;4993502;28;20528;-55
2023/01/11 13:06:22;;;;;;;29.52;5.03;;;10.10;99.90;;;;;;5023193;28;20045;-56
2023/01/11 13:09:10;;;;;;;16.33;3.72;;;10.10;99.90;;;;;;4997475;28;20092;-56
2023/01/11 13:12:00;;;;;;;21.33;4.43;;;10.10;99.90;;;;;;5017021;28;20459;-55
2023/01/11 13:14:51;;;;;;;24.27;5.90;;;10.10;99.90;;;;;;5022503;28;20088;-56
2023/01/11 13:17:25;;;;;;;26.85;4.90;;;10.10;99.90;;;;;;5007073;28;20070;-56
2023/01/11 13:20:04;;;;;;;26.33;4.35;;;10.00;99.90;;;;;;4998047;28;20049;-56
2023/01/11 13:22:38;;;;;;;23.77;4.72;;;10.00;99.90;;;;;;4995362;28;20141;-56
2023/01/11 13:25:22;;;;;;;29.58;4.55;;;10.00;99.90;;;;;;4982746;28;20416;-55
2023/01/11 13:27:49;;;;;;;29.33;5.93;;;9.90;99.90;;;;;;4996242;28;20122;-55
2023/01/11 13:30:18;;;;;;;26.30;5.00;;;10.00;99.90;;;;;;4988024;28;20428;-53
2023/01/11 13:33:11;;;;;;;23.70;4.55;;;10.00;99.90;;;;;;5021592;28;20040;-53
2023/01/11 13:35:48;;;;;;;23.80;4.28;;;10.00;99.90;;;;;;4998327;28;20051;-56
2023/01/11 13:38:36;;;;;;;24.23;5.00;;;10.00;99.90;;;;;;5007552;28;20042;-55
2023/01/11 13:41:36;;;;;;;26.00;4.72;;;9.90;99.90;;;;;;5007056;28;20045;-56
2023/01/11 13:44:05;;;;;;;20.45;6.03;;;9.90;99.90;;;;;;5013357;28;20046;-57